Time;durP1;ratioP1;P1;durP2;ratioP2;P2;SDS_P1;SDS_P2;PMS_P1;PMS_P2;Temp;Humidity;BMP_temperature;BMP_pressure;BME280_temperature;BME280_humidity;BME280_pressure;Samples;Min_cycle;Max_cycle;Signal;HPM_P1;HPM_P2
2022/05/22 00:00:49;;;;;;;9.50;2.97;;;14.20;99.90;;;;;;7340844;19;108210;-82
2022/05/22 00:03:16;;;;;;;12.10;4.22;;;14.20;99.90;;;;;;7340194;19;109365;-83
2022/05/22 00:05:44;;;;;;;8.73;3.65;;;14.20;99.90;;;;;;7340912;19;108082;-81
2022/05/22 00:08:11;;;;;;;8.10;3.65;;;14.20;99.90;;;;;;7344777;19;107830;-83
2022/05/22 00:10:38;;;;;;;6.50;3.70;;;14.20;99.90;;;;;;7341100;19;108120;-84
2022/05/22 00:13:05;;;;;;;15.23;4.47;;;14.30;99.90;;;;;;7338970;19;108912;-83
2022/05/22 00:15:33;;;;;;;10.52;4.38;;;14.20;99.90;;;;;;7343389;19;108053;-83
2022/05/22 00:18:00;;;;;;;6.82;4.03;;;14.10;99.90;;;;;;7341479;19;107858;-84
2022/05/22 00:20:27;;;;;;;11.30;4.30;;;14.20;99.90;;;;;;7341111;19;108187;-84
2022/05/22 00:22:54;;;;;;;6.90;4.55;;;14.20;99.90;;;;;;7341465;19;110360;-84
2022/05/22 00:25:21;;;;;;;8.88;4.38;;;14.10;99.90;;;;;;7342213;19;108050;-82
2022/05/22 00:27:48;;;;;;;13.13;4.40;;;14.10;99.90;;;;;;7339214;19;107725;-84
2022/05/22 00:30:14;;;;;;;;;;;14.10;99.90;;;;;;7347034;19;109558;-84
2022/05/22 00:32:42;;;;;;;7.93;4.63;;;14.10;99.90;;;;;;7342601;19;108651;-84
2022/05/22 00:35:09;;;;;;;9.38;4.35;;;14.10;99.90;;;;;;7341419;19;108544;-84
2022/05/22 00:37:37;;;;;;;8.40;4.28;;;14.10;99.90;;;;;;7340004;19;107175;-84
2022/05/22 00:40:05;;;;;;;9.02;4.00;;;14.20;99.90;;;;;;7340882;19;109938;-84
2022/05/22 00:42:32;;;;;;;9.75;4.00;;;14.20;99.90;;;;;;7340211;19;109223;-84
2022/05/22 00:44:59;;;;;;;9.80;4.20;;;14.10;99.90;;;;;;7342585;19;107933;-84
2022/05/22 00:47:26;;;;;;;12.13;3.90;;;14.20;99.90;;;;;;7338446;19;107440;-83
2022/05/22 00:50:00;;;;;;;6.30;3.72;;;14.10;99.90;;;;;;7340122;19;109613;-84
2022/05/22 00:52:42;;;;;;;9.80;4.07;;;14.00;99.90;;;;;;7347092;19;108555;-84
2022/05/22 00:55:14;;;;;;;7.45;3.95;;;14.00;99.90;;;;;;7340885;19;110694;-84
2022/05/22 00:57:51;;;;;;;7.35;3.58;;;14.00;99.90;;;;;;7340610;19;108536;-84
2022/05/22 01:00:21;;;;;;;5.78;3.85;;;14.00;99.90;;;;;;7338013;19;111241;-83
2022/05/22 01:05:35;;;;;;;8.30;4.30;;;14.00;99.90;;;;;;7339695;19;107839;-83
2022/05/22 01:08:03;;;;;;;6.13;4.32;;;13.90;99.90;;;;;;7338169;19;108812;-84
2022/05/22 01:10:40;;;;;;;8.18;4.18;;;13.90;99.90;;;;;;7338790;19;109173;-83
2022/05/22 01:13:07;;;;;;;10.13;5.10;;;13.90;99.90;;;;;;7339997;19;108848;-84
2022/05/22 01:15:35;;;;;;;9.07;4.90;;;13.90;99.90;;;;;;7347409;19;108281;-84
2022/05/22 01:18:02;;;;;;;11.98;4.80;;;13.80;99.90;;;;;;7339208;19;108915;-84
2022/05/22 01:20:29;;;;;;;10.70;4.97;;;13.80;99.90;;;;;;7339142;19;110264;-84
2022/05/22 01:22:56;;;;;;;8.27;4.60;;;13.80;99.90;;;;;;7337794;19;108183;-83
2022/05/22 01:25:23;;;;;;;7.28;4.63;;;13.80;99.90;;;;;;7338801;19;107948;-84
2022/05/22 01:27:51;;;;;;;9.73;4.82;;;13.80;99.90;;;;;;7337687;19;108133;-83
2022/05/22 01:30:25;;;;;;;8.30;4.20;;;13.70;99.90;;;;;;7340820;19;111619;-83
2022/05/22 01:32:52;;;;;;;8.95;4.53;;;13.70;99.90;;;;;;7339991;19;108101;-84
2022/05/22 01:35:28;;;;;;;9.43;4.13;;;13.60;99.90;;;;;;7340074;19;107658;-84
2022/05/22 01:37:56;;;;;;;6.20;3.87;;;13.50;99.90;;;;;;7347075;19;111155;-84
2022/05/22 01:40:23;;;;;;;8.13;4.13;;;13.50;99.90;;;;;;7338484;19;108744;-84
2022/05/22 01:42:50;;;;;;;8.73;4.53;;;13.50;99.90;;;;;;7341032;19;109228;-84
2022/05/22 01:45:22;;;;;;;11.15;4.18;;;13.50;99.90;;;;;;7340885;19;108216;-85
2022/05/22 01:47:49;;;;;;;9.18;4.15;;;13.50;99.90;;;;;;7340720;19;108422;-84
2022/05/22 01:50:17;;;;;;;9.40;4.13;;;13.50;99.90;;;;;;7341867;19;108912;-83
2022/05/22 01:52:44;;;;;;;12.65;4.57;;;13.60;99.90;;;;;;7340749;19;107361;-84
2022/05/22 01:55:12;;;;;;;9.70;4.55;;;13.70;99.90;;;;;;7338626;19;108173;-84
2022/05/22 01:57:40;;;;;;;8.88;4.70;;;13.70;99.90;;;;;;7343090;19;109587;-84
2022/05/22 02:00:11;;;;;;;8.02;4.55;;;13.70;99.90;;;;;;7339058;19;107479;-83
2022/05/22 02:02:38;;;;;;;10.85;5.13;;;13.60;99.90;;;;;;7338502;19;108877;-84
2022/05/22 02:05:06;;;;;;;9.05;5.03;;;13.50;99.90;;;;;;7336882;19;109912;-83
2022/05/22 02:10:19;;;;;;;10.98;4.40;;;13.40;99.90;;;;;;7340547;19;108559;-84
2022/05/22 02:12:46;;;;;;;10.63;4.53;;;13.40;99.90;;;;;;7338462;19;108748;-84
2022/05/22 02:15:13;;;;;;;8.95;4.10;;;13.50;99.90;;;;;;7340779;19;108503;-84
2022/05/22 02:17:40;;;;;;;8.45;4.35;;;13.50;99.90;;;;;;7337198;19;108471;-83
2022/05/22 02:20:07;;;;;;;8.90;4.38;;;13.60;99.90;;;;;;7344115;19;108264;-83
2022/05/22 02:22:47;;;;;;;7.70;4.38;;;13.60;99.90;;;;;;7336871;19;109182;-83
2022/05/22 02:25:17;;;;;;;10.15;4.90;;;13.60;99.90;;;;;;7338457;19;108039;-83
2022/05/22 02:27:45;;;;;;;10.50;4.82;;;13.60;99.90;;;;;;7335579;19;108684;-83
2022/05/22 02:30:16;;;;;;;11.65;4.70;;;13.50;99.90;;;;;;7337236;19;108633;-83
2022/05/22 02:32:43;;;;;;;6.35;4.50;;;13.40;99.90;;;;;;7337640;19;107986;-84
2022/05/22 02:35:12;;;;;;;9.80;4.22;;;13.40;99.90;;;;;;7345736;19;108557;-84
2022/05/22 02:37:51;;;;;;;10.55;4.50;;;13.40;99.90;;;;;;7343354;19;109239;-84
2022/05/22 02:40:22;;;;;;;8.02;4.88;;;13.40;99.90;;;;;;7346702;19;107627;-84
2022/05/22 02:42:51;;;;;;;7.60;4.35;;;13.40;99.90;;;;;;7348417;19;109095;-84
2022/05/22 02:45:21;;;;;;;7.88;4.45;;;13.30;99.90;;;;;;7345482;19;108193;-83
2022/05/22 02:47:49;;;;;;;6.72;4.78;;;13.30;99.90;;;;;;7344599;19;108462;-84
2022/05/22 02:50:19;;;;;;;13.50;4.38;;;13.30;99.90;;;;;;7344134;19;108797;-84
2022/05/22 02:52:46;;;;;;;7.90;4.13;;;13.40;99.90;;;;;;7344408;19;108654;-83
2022/05/22 02:55:13;;;;;;;9.88;4.57;;;13.40;99.90;;;;;;7343796;19;108610;-83
2022/05/22 02:57:40;;;;;;;9.27;4.75;;;13.40;99.90;;;;;;7343438;19;108309;-84
2022/05/22 03:00:13;;;;;;;9.98;5.05;;;13.30;99.90;;;;;;7344683;19;107677;-84
2022/05/22 03:02:40;;;;;;;8.73;4.63;;;13.30;99.90;;;;;;7344516;19;108273;-84
2022/05/22 03:05:08;;;;;;;9.10;4.65;;;13.30;99.90;;;;;;7349445;19;109187;-83
2022/05/22 03:07:38;;;;;;;13.05;5.10;;;13.30;99.90;;;;;;7341514;19;107831;-84
2022/05/22 03:10:08;;;;;;;9.25;4.47;;;13.20;99.90;;;;;;7341898;19;108941;-83
2022/05/22 03:12:39;;;;;;;15.50;5.15;;;13.20;99.90;;;;;;7340313;19;107269;-84
2022/05/22 03:15:08;;;;;;;10.07;4.85;;;13.10;99.90;;;;;;7342411;19;108679;-83
2022/05/22 03:17:35;;;;;;;7.85;4.32;;;13.00;99.90;;;;;;7343623;19;108917;-83
2022/05/22 03:20:04;;;;;;;8.35;4.70;;;12.90;99.90;;;;;;7340695;19;109009;-83
2022/05/22 03:22:31;;;;;;;8.95;4.25;;;12.90;99.90;;;;;;7343839;19;108236;-83
2022/05/22 03:24:59;;;;;;;10.38;4.38;;;13.00;99.90;;;;;;7343381;19;109334;-83
2022/05/22 03:27:26;;;;;;;9.68;4.97;;;13.00;99.90;;;;;;7347502;19;107913;-84
2022/05/22 03:29:53;;;;;;;8.32;4.78;;;13.00;99.90;;;;;;7343273;19;108976;-84
2022/05/22 03:32:20;;;;;;;11.50;4.18;;;13.00;99.90;;;;;;7342616;19;108945;-83
2022/05/22 03:34:54;;;;;;;11.20;4.57;;;13.00;99.90;;;;;;7343620;19;109629;-84
2022/05/22 03:37:24;;;;;;;5.25;4.55;;;12.90;99.90;;;;;;7343633;19;108661;-83
2022/05/22 03:39:57;;;;;;;6.50;3.97;;;12.80;99.90;;;;;;7344130;19;108503;-83
2022/05/22 03:42:27;;;;;;;;;;;12.80;99.90;;;;;;7338562;19;110552;-83
2022/05/22 03:44:54;;;;;;;6.90;4.18;;;12.80;99.90;;;;;;7345712;19;109419;-83
2022/05/22 03:47:21;;;;;;;8.90;4.25;;;12.80;99.90;;;;;;7344233;19;108192;-84
2022/05/22 03:49:48;;;;;;;7.15;4.40;;;12.80;99.90;;;;;;7348412;19;108168;-83
2022/05/22 03:52:15;;;;;;;;;;;12.80;99.90;;;;;;7343459;19;107918;-84
2022/05/22 03:54:42;;;;;;;7.90;4.03;;;12.70;99.90;;;;;;7345257;19;108684;-84
2022/05/22 03:57:09;;;;;;;;;;;12.60;99.90;;;;;;7343012;19;111580;-85
2022/05/22 03:59:40;;;;;;;11.63;4.07;;;12.60;99.90;;;;;;7348922;19;108023;-84
2022/05/22 04:02:07;;;;;;;9.35;4.88;;;12.60;99.90;;;;;;7342157;19;108631;-85
2022/05/22 04:04:34;;;;;;;7.00;4.07;;;12.70;99.90;;;;;;7343198;19;109431;-84
2022/05/22 04:07:02;;;;;;;9.32;4.93;;;12.70;99.90;;;;;;7343572;19;107262;-84
2022/05/22 04:09:29;;;;;;;8.95;4.22;;;12.70;99.90;;;;;;7347853;19;108040;-84
2022/05/22 04:11:56;;;;;;;13.43;4.65;;;12.70;99.90;;;;;;7342088;19;108692;-84
2022/05/22 04:14:24;;;;;;;12.60;4.60;;;12.70;99.90;;;;;;7339461;19;108404;-83
2022/05/22 04:16:51;;;;;;;11.93;4.47;;;12.70;99.90;;;;;;7341768;19;108388;-83
2022/05/22 04:19:18;;;;;;;12.63;5.28;;;12.70;99.90;;;;;;7342064;19;108528;-83
2022/05/22 04:21:46;;;;;;;8.18;4.72;;;12.70;99.90;;;;;;7340862;19;108292;-83
2022/05/22 04:27:06;;;;;;;6.60;4.72;;;12.80;99.90;;;;;;7341451;19;108248;-84
2022/05/22 04:29:35;;;;;;;11.20;4.97;;;12.80;99.90;;;;;;7341127;19;108149;-83
2022/05/22 04:32:04;;;;;;;11.73;5.85;;;12.80;99.90;;;;;;7347943;19;109052;-84
2022/05/22 04:34:31;;;;;;;10.85;5.13;;;12.80;99.90;;;;;;7343504;19;107985;-82
2022/05/22 04:36:58;;;;;;;7.70;5.18;;;12.80;99.90;;;;;;7339757;19;108834;-85
2022/05/22 04:39:25;;;;;;;7.85;5.13;;;12.80;99.90;;;;;;7341922;19;108228;-84
2022/05/22 04:41:52;;;;;;;6.95;4.32;;;12.90;99.90;;;;;;7337864;19;108553;-83
2022/05/22 04:44:19;;;;;;;9.80;4.60;;;13.00;99.90;;;;;;7342408;19;109287;-83
2022/05/22 04:46:46;;;;;;;8.40;5.03;;;13.10;99.90;;;;;;7342523;19;110567;-88
2022/05/22 04:49:14;;;;;;;10.98;5.05;;;13.10;99.90;;;;;;7343247;19;108323;-88
2022/05/22 04:51:41;;;;;;;10.05;5.25;;;13.20;99.90;;;;;;7341799;19;112064;-87
2022/05/22 04:54:09;;;;;;;10.82;5.53;;;13.30;99.90;;;;;;7346151;19;108075;-88
2022/05/22 04:56:36;;;;;;;7.82;5.20;;;13.30;99.90;;;;;;7336013;19;108304;-87
2022/05/22 04:59:03;;;;;;;10.25;5.03;;;13.40;99.90;;;;;;7340226;19;108573;-86
2022/05/22 05:01:30;;;;;;;18.48;6.10;;;13.40;99.90;;;;;;7339394;19;111533;-86
2022/05/22 05:03:57;;;;;;;8.43;5.50;;;13.50;99.90;;;;;;7341835;19;107838;-86
2022/05/22 05:06:29;;;;;;;9.80;5.43;;;13.40;99.90;;;;;;7343559;19;107990;-87
2022/05/22 05:08:56;;;;;;;12.63;6.03;;;13.40;99.90;;;;;;7343966;19;108295;-85
2022/05/22 05:11:23;;;;;;;9.63;4.82;;;13.30;99.90;;;;;;7342224;19;108605;-86
2022/05/22 05:13:50;;;;;;;12.77;4.93;;;13.30;99.90;;;;;;7340460;19;111366;-86
2022/05/22 05:16:18;;;;;;;18.67;5.47;;;13.40;99.90;;;;;;7345698;19;107486;-87
2022/05/22 05:18:45;;;;;;;16.63;5.07;;;13.50;99.90;;;;;;7341225;19;108566;-88
2022/05/22 05:21:15;;;;;;;12.80;4.85;;;13.70;99.90;;;;;;7338454;19;109201;-87
2022/05/22 05:23:41;;;;;;;14.13;5.45;;;13.80;99.90;;;;;;7342038;19;109728;-88
2022/05/22 05:26:09;;;;;;;15.88;5.28;;;13.90;99.90;;;;;;7341391;19;107681;-87
2022/05/22 05:28:36;;;;;;;14.82;5.85;;;14.00;99.90;;;;;;7340581;19;110824;-87
2022/05/22 05:31:04;;;;;;;10.27;5.35;;;14.10;99.90;;;;;;7342918;19;108854;-88
2022/05/22 05:33:32;;;;;;;12.35;5.40;;;14.20;99.90;;;;;;7341808;19;108119;-87
2022/05/22 05:36:00;;;;;;;9.65;5.70;;;14.30;99.90;;;;;;7342197;19;108274;-88
2022/05/22 05:38:27;;;;;;;7.15;5.13;;;14.50;99.90;;;;;;7347145;19;108857;-86
2022/05/22 05:41:14;;;;;;;10.23;5.10;;;14.60;99.90;;;;;;7340659;19;109918;-87
2022/05/22 05:43:42;;;;;;;8.73;5.07;;;14.70;99.90;;;;;;7340871;19;112590;-88
2022/05/22 05:46:10;;;;;;;10.75;4.88;;;14.80;99.90;;;;;;7339956;19;107915;-88
2022/05/22 05:48:41;;;;;;;8.18;5.43;;;14.90;99.90;;;;;;7338044;19;108985;-88
2022/05/22 05:51:08;;;;;;;11.05;5.90;;;14.90;99.90;;;;;;7340190;19;108461;-87
2022/05/22 05:53:35;;;;;;;8.93;5.30;;;15.00;99.90;;;;;;7337381;19;108106;-87
2022/05/22 05:56:07;;;;;;;9.70;5.50;;;15.10;99.90;;;;;;7337307;19;111025;-87
2022/05/22 05:58:49;;;;;;;10.85;5.88;;;15.20;99.90;;;;;;7335733;19;110532;-87
2022/05/22 06:01:18;;;;;;;9.38;5.88;;;15.20;99.90;;;;;;7340821;19;107333;-87
2022/05/22 06:03:45;;;;;;;11.30;6.70;;;15.40;99.90;;;;;;7339060;19;108222;-87
2022/05/22 06:06:14;;;;;;;12.95;6.40;;;15.50;99.90;;;;;;7339132;19;108395;-88
2022/05/22 06:08:42;;;;;;;10.13;6.70;;;15.60;99.90;;;;;;7339362;19;108205;-87
2022/05/22 06:11:09;;;;;;;9.57;6.55;;;15.70;99.90;;;;;;7344287;19;108891;-87
2022/05/22 06:13:37;;;;;;;11.50;6.57;;;15.80;99.90;;;;;;7341547;19;112642;-88
2022/05/22 06:16:05;;;;;;;14.73;7.00;;;15.90;99.90;;;;;;7341959;19;109956;-87
2022/05/22 06:18:33;;;;;;;9.55;7.10;;;16.00;99.90;;;;;;7343319;19;108965;-86
2022/05/22 06:21:09;;;;;;;9.30;7.03;;;16.20;99.90;;;;;;7350472;19;107497;-86
2022/05/22 06:23:38;;;;;;;17.30;7.78;;;16.30;99.90;;;;;;7343783;19;108610;-86
2022/05/22 06:26:10;;;;;;;15.15;7.03;;;16.40;99.90;;;;;;7342569;19;108516;-86
2022/05/22 06:28:37;;;;;;;11.95;7.60;;;16.40;99.90;;;;;;7344414;19;109618;-86
2022/05/22 06:31:06;;;;;;;10.90;6.47;;;16.50;99.90;;;;;;7345148;19;108944;-86
2022/05/22 06:33:34;;;;;;;13.43;7.50;;;16.60;99.90;;;;;;7343653;19;110607;-86
2022/05/22 06:36:19;;;;;;;16.63;7.97;;;16.70;99.90;;;;;;7343053;19;107351;-84
2022/05/22 06:41:32;;;;;;;11.88;7.03;;;16.80;99.90;;;;;;7345472;19;109634;-84
2022/05/22 06:43:59;;;;;;;12.98;7.68;;;16.90;99.90;;;;;;7350210;19;108575;-85
2022/05/22 06:46:30;;;;;;;17.55;7.90;;;17.00;99.90;;;;;;7344051;19;108221;-84
2022/05/22 06:48:58;;;;;;;15.02;7.90;;;17.20;99.90;;;;;;7341821;19;108559;-84
2022/05/22 06:51:25;;;;;;;10.98;6.35;;;17.20;99.90;;;;;;7341194;19;109129;-83
2022/05/22 06:53:52;;;;;;;10.27;6.88;;;17.30;99.90;;;;;;7342741;19;108120;-83
2022/05/22 06:56:19;;;;;;;13.73;6.65;;;17.50;99.90;;;;;;7343161;19;108653;-84
2022/05/22 06:58:46;;;;;;;14.40;6.90;;;17.60;99.90;;;;;;7342739;19;109135;-85
2022/05/22 07:01:15;;;;;;;11.48;6.35;;;17.60;99.90;;;;;;7344947;19;108097;-84
2022/05/22 07:03:42;;;;;;;13.70;6.05;;;17.70;99.90;;;;;;7339554;19;108262;-84
2022/05/22 07:06:10;;;;;;;14.93;6.40;;;17.80;99.90;;;;;;7345968;19;109541;-85
2022/05/22 07:08:37;;;;;;;11.23;6.05;;;17.90;99.90;;;;;;7342505;19;108177;-85
2022/05/22 07:13:49;;;;;;;14.98;5.43;;;18.10;99.90;;;;;;7341904;19;108528;-84
2022/05/22 07:16:17;;;;;;;9.57;5.43;;;18.20;99.90;;;;;;7340675;19;108499;-85
2022/05/22 07:18:51;;;;;;;13.35;5.75;;;18.40;99.90;;;;;;7342600;19;108982;-83
2022/05/22 07:21:18;;;;;;;15.18;5.78;;;18.60;99.90;;;;;;7341579;19;111654;-84
2022/05/22 07:23:45;;;;;;;18.70;6.18;;;18.70;99.90;;;;;;7341151;19;108301;-83
2022/05/22 07:26:12;;;;;;;13.38;5.72;;;18.80;99.90;;;;;;7342934;19;111304;-84
2022/05/22 07:28:39;;;;;;;14.55;5.78;;;18.90;99.90;;;;;;7348926;19;108037;-84
2022/05/22 07:31:17;;;;;;;11.57;4.70;;;18.90;99.90;;;;;;7342941;19;109947;-84
2022/05/22 07:33:44;;;;;;;12.15;4.57;;;18.90;99.90;;;;;;7343073;19;108080;-83
2022/05/22 07:36:12;;;;;;;7.20;4.03;;;18.90;99.90;;;;;;7342276;19;108413;-84
2022/05/22 07:38:39;;;;;;;18.73;3.70;;;18.90;99.90;;;;;;7340366;19;108410;-84
2022/05/22 07:41:06;;;;;;;10.52;3.30;;;18.90;99.90;;;;;;7342408;19;110655;-83
2022/05/22 07:43:33;;;;;;;15.80;3.47;;;19.00;99.90;;;;;;7337809;19;108353;-83
2022/05/22 07:46:01;;;;;;;9.57;3.33;;;19.10;99.90;;;;;;7343356;19;108932;-83
2022/05/22 07:48:34;;;;;;;10.65;3.95;;;19.20;99.90;;;;;;7345287;19;108082;-84
2022/05/22 07:51:03;;;;;;;11.05;3.70;;;19.40;99.90;;;;;;7349927;19;112872;-83
2022/05/22 07:53:30;;;;;;;11.73;3.70;;;19.40;99.90;;;;;;7344670;19;108390;-85
2022/05/22 07:55:57;;;;;;;10.27;3.20;;;19.50;99.90;;;;;;7341722;19;107747;-83
2022/05/22 07:58:26;;;;;;;10.23;3.28;;;19.60;99.90;;;;;;7345129;19;109148;-84
2022/05/22 08:00:54;;;;;;;9.27;3.25;;;19.70;99.90;;;;;;7342394;19;108194;-83
2022/05/22 08:03:22;;;;;;;10.88;3.67;;;19.60;99.90;;;;;;7343438;19;108513;-83
2022/05/22 08:05:51;;;;;;;9.70;3.65;;;19.50;99.50;;;;;;7343291;19;108406;-85
2022/05/22 08:08:18;;;;;;;12.07;4.25;;;19.40;99.20;;;;;;7341851;19;107157;-85
2022/05/22 08:10:45;;;;;;;11.70;4.50;;;19.50;98.70;;;;;;7349278;19;108415;-83
2022/05/22 08:13:14;;;;;;;17.75;5.35;;;19.40;99.50;;;;;;7340746;19;108089;-85
2022/05/22 08:15:42;;;;;;;13.48;4.68;;;19.50;99.20;;;;;;7343686;19;108121;-84
2022/05/22 08:18:10;;;;;;;14.60;5.18;;;19.60;98.90;;;;;;7344122;19;108669;-84
2022/05/22 08:20:40;;;;;;;10.10;4.43;;;19.70;99.10;;;;;;7342863;19;109579;-83
2022/05/22 08:23:16;;;;;;;18.95;4.53;;;19.90;98.70;;;;;;7341624;19;108948;-85
2022/05/22 08:25:44;;;;;;;16.05;4.30;;;20.00;97.80;;;;;;7344178;19;109370;-84
2022/05/22 08:28:12;;;;;;;16.25;4.38;;;20.30;98.50;;;;;;7340892;19;107866;-84
2022/05/22 08:30:40;;;;;;;30.65;6.35;;;20.40;97.80;;;;;;7338144;19;108160;-83
2022/05/22 08:33:07;;;;;;;13.30;4.53;;;20.50;97.20;;;;;;7344474;19;108859;-84
2022/05/22 08:35:37;;;;;;;16.75;4.78;;;20.20;97.10;;;;;;7340663;19;108503;-84
2022/05/22 08:38:05;;;;;;;11.85;4.57;;;20.40;98.10;;;;;;7341871;19;109130;-85
2022/05/22 08:40:46;;;;;;;12.35;4.60;;;20.30;97.50;;;;;;7341421;19;111494;-84
2022/05/22 08:43:33;;;;;;;13.80;4.97;;;20.10;97.70;;;;;;7341703;19;107684;-84
2022/05/22 08:46:07;;;;;;;11.10;5.00;;;20.20;98.00;;;;;;7343230;19;108898;-84
2022/05/22 08:48:46;;;;;;;17.92;5.07;;;20.20;97.40;;;;;;7342740;19;108346;-84
2022/05/22 08:51:40;;;;;;;24.08;6.50;;;20.70;96.30;;;;;;7342738;19;110796;-83
2022/05/22 08:54:22;;;;;;;19.10;6.07;;;20.60;97.20;;;;;;7343161;19;109119;-84
2022/05/22 08:59:39;;;;;;;13.90;5.32;;;20.80;96.80;;;;;;7332478;19;109021;-81
2022/05/22 09:02:34;;;;;;;15.55;5.57;;;20.80;96.80;;;;;;7341733;19;108895;-83
2022/05/22 09:05:07;;;;;;;9.43;5.10;;;21.10;97.10;;;;;;7343054;19;108368;-83
2022/05/22 09:07:49;;;;;;;11.50;5.63;;;21.00;96.40;;;;;;7343438;19;108923;-82
2022/05/22 09:10:26;;;;;;;15.55;4.78;;;21.10;96.60;;;;;;7343624;19;108677;-83
2022/05/22 09:12:56;;;;;;;10.00;4.78;;;21.50;95.00;;;;;;7340490;19;107755;-83
2022/05/22 09:15:47;;;;;;;14.02;5.18;;;21.40;96.00;;;;;;7341798;19;110468;-84
2022/05/22 09:18:36;;;;;;;12.82;5.00;;;21.20;95.70;;;;;;7341227;19;107722;-83
2022/05/22 09:21:22;;;;;;;11.93;4.55;;;21.00;95.80;;;;;;7347541;19;108448;-83
2022/05/22 09:24:30;;;;;;;11.73;4.20;;;21.10;97.50;;;;;;7337938;19;107465;-83
2022/05/22 09:27:08;;;;;;;12.55;5.10;;;21.50;97.40;;;;;;7333471;19;108955;-84
2022/05/22 09:29:44;;;;;;;13.88;5.05;;;21.80;95.00;;;;;;7337454;19;108254;-82
2022/05/22 09:32:22;;;;;;;12.40;4.95;;;21.70;95.30;;;;;;7333585;19;107742;-82
2022/05/22 09:34:57;;;;;;;12.80;4.30;;;21.60;95.10;;;;;;7336068;19;108217;-82
2022/05/22 09:38:00;;;;;;;8.85;4.43;;;21.50;95.90;;;;;;7337150;19;109058;-82
2022/05/22 09:40:46;;;;;;;14.05;4.50;;;21.80;96.30;;;;;;7336984;19;107123;-82
2022/05/22 09:43:37;;;;;;;13.02;4.07;;;22.10;96.50;;;;;;7334240;19;111778;-83
2022/05/22 09:46:35;;;;;;;8.27;3.78;;;22.30;95.80;;;;;;7342782;19;108818;-82
2022/05/22 09:49:05;;;;;;;9.52;4.68;;;22.50;96.50;;;;;;7337982;19;108216;-82
2022/05/22 09:51:50;;;;;;;11.65;4.65;;;22.60;95.70;;;;;;7336190;19;108928;-83
2022/05/22 09:54:49;;;;;;;14.27;4.90;;;22.50;93.40;;;;;;7334134;19;108351;-83
2022/05/22 09:58:08;;;;;;;13.60;4.85;;;22.50;94.90;;;;;;7332040;19;108643;-82
2022/05/22 10:00:38;;;;;;;14.05;4.53;;;22.70;94.70;;;;;;7335578;19;109211;-82
2022/05/22 10:03:18;;;;;;;14.32;4.53;;;22.80;95.30;;;;;;7335276;19;108604;-82
2022/05/22 10:05:57;;;;;;;12.68;4.63;;;22.90;95.20;;;;;;7335396;19;107363;-82
2022/05/22 10:08:42;;;;;;;13.15;4.28;;;23.00;94.60;;;;;;7333095;19;109335;-83
2022/05/22 10:11:22;;;;;;;11.77;4.55;;;23.20;95.10;;;;;;7338208;19;107585;-85
2022/05/22 10:14:23;;;;;;;10.18;4.30;;;23.30;95.00;;;;;;7331378;19;109432;-85
2022/05/22 10:17:13;;;;;;;11.60;3.97;;;23.50;93.60;;;;;;7334463;19;107373;-85
2022/05/22 10:19:55;;;;;;;8.38;4.30;;;23.50;94.90;;;;;;7335645;19;108273;-85
2022/05/22 10:22:38;;;;;;;11.48;4.15;;;23.70;94.00;;;;;;7336741;19;111145;-86
2022/05/22 10:25:26;;;;;;;10.43;3.92;;;23.70;94.20;;;;;;7332485;19;107523;-85
2022/05/22 10:28:12;;;;;;;13.10;4.28;;;23.70;93.10;;;;;;7333262;19;107784;-85
2022/05/22 10:30:48;;;;;;;8.95;3.47;;;23.70;93.60;;;;;;7334986;19;110575;-84
2022/05/22 10:33:28;;;;;;;9.73;3.60;;;23.70;93.70;;;;;;7341641;19;109008;-83
2022/05/22 10:36:18;;;;;;;11.40;3.92;;;23.80;93.10;;;;;;7339788;19;109203;-84
2022/05/22 10:39:00;;;;;;;8.07;3.63;;;23.90;93.60;;;;;;7339026;19;108781;-84
2022/05/22 10:44:35;;;;;;;9.90;3.88;;;24.10;92.70;;;;;;7336585;19;108094;-86
2022/05/22 10:47:02;;;;;;;11.73;3.75;;;24.10;92.80;;;;;;7332553;19;108467;-85
2022/05/22 10:49:42;;;;;;;11.23;4.72;;;24.40;92.00;;;;;;7336644;19;108445;-87
2022/05/22 10:52:12;;;;;;;9.32;3.60;;;24.60;91.20;;;;;;7337825;19;109232;-89
2022/05/22 10:54:51;;;;;;;12.35;4.05;;;24.30;91.80;;;;;;7336600;19;108518;-86
2022/05/22 10:57:28;;;;;;;11.27;3.97;;;24.20;92.70;;;;;;7349934;19;107253;-87
2022/05/22 10:59:55;;;;;;;8.80;3.55;;;24.20;92.30;;;;;;7345438;19;107218;-88
2022/05/22 11:02:30;;;;;;;8.27;3.95;;;24.20;90.90;;;;;;7346549;19;108547;-87
2022/05/22 11:04:59;;;;;;;11.20;4.25;;;24.10;90.60;;;;;;7343638;19;109493;-88
2022/05/22 11:07:33;;;;;;;8.40;3.40;;;24.10;91.00;;;;;;7344204;19;108469;-85
2022/05/22 11:10:21;;;;;;;10.73;3.67;;;24.20;92.00;;;;;;7342579;19;111607;-84
2022/05/22 11:13:12;;;;;;;7.07;3.42;;;24.40;92.00;;;;;;7342050;19;109258;-84
2022/05/22 11:15:42;;;;;;;9.82;4.10;;;24.60;89.80;;;;;;7345432;19;108231;-86
2022/05/22 11:18:18;;;;;;;13.07;4.10;;;24.50;90.90;;;;;;7346248;19;108051;-86
2022/05/22 11:21:02;;;;;;;14.50;4.10;;;24.70;90.30;;;;;;7351786;19;109671;-88
2022/05/22 11:23:47;;;;;;;10.82;3.40;;;24.60;86.50;;;;;;7345247;19;108618;-88
2022/05/22 11:26:38;;;;;;;10.27;3.80;;;24.30;90.40;;;;;;7344523;19;107985;-86
2022/05/22 11:29:38;;;;;;;7.82;3.10;;;24.40;91.60;;;;;;7344142;19;108955;-87
2022/05/22 11:32:33;;;;;;;10.30;3.60;;;24.60;92.10;;;;;;7338489;19;108563;-91
2022/05/22 11:35:36;;;;;;;6.55;3.75;;;24.70;89.40;;;;;;7342848;19;108918;-86
2022/05/22 11:38:30;;;;;;;8.82;3.20;;;24.50;88.80;;;;;;7343593;19;108418;-85
2022/05/22 11:41:21;;;;;;;8.40;3.33;;;24.90;86.00;;;;;;7343056;19;108828;-86
2022/05/22 11:43:57;;;;;;;8.43;3.33;;;24.90;82.80;;;;;;7343375;19;112327;-86
2022/05/22 11:46:50;;;;;;;6.28;2.80;;;24.80;86.30;;;;;;7349182;19;111090;-85
2022/05/22 11:49:32;;;;;;;9.45;3.00;;;24.90;90.20;;;;;;7342718;19;112176;-84
2022/05/22 11:55:22;;;;;;;9.80;2.97;;;25.20;88.40;;;;;;7344983;19;111097;-86
2022/05/22 11:58:00;;;;;;;8.03;3.07;;;25.40;88.10;;;;;;7341399;19;109733;-86
2022/05/22 12:00:45;;;;;;;5.85;2.80;;;25.40;83.50;;;;;;7343115;19;109574;-85
2022/05/22 12:03:50;;;;;;;7.63;3.50;;;25.40;82.70;;;;;;7344991;19;108701;-88
2022/05/22 12:06:43;;;;;;;6.35;3.10;;;25.60;80.80;;;;;;7344036;19;111386;-89
2022/05/22 12:09:29;;;;;;;7.25;2.60;;;25.60;82.60;;;;;;7343111;19;111041;-91
2022/05/22 12:12:29;;;;;;;12.25;2.92;;;25.70;83.70;;;;;;7349555;19;110244;-90
2022/05/22 12:15:03;;;;;;;5.82;2.53;;;25.80;85.40;;;;;;7337747;19;107656;-92
2022/05/22 12:17:55;;;;;;;7.70;2.50;;;26.00;85.20;;;;;;7341496;19;108705;-90
2022/05/22 12:20:47;;;;;;;17.83;2.40;;;26.20;85.30;;;;;;7338190;19;109337;-89
2022/05/22 12:23:36;;;;;;;8.88;2.35;;;26.40;84.80;;;;;;7340864;19;110549;-90
2022/05/22 12:26:06;;;;;;;7.43;2.47;;;26.60;83.60;;;;;;7344498;19;108598;-92
2022/05/22 12:28:54;;;;;;;5.90;2.20;;;26.80;83.10;;;;;;7342091;19;109258;-91
2022/05/22 12:31:26;;;;;;;6.82;2.72;;;26.90;79.00;;;;;;7339924;19;108341;-87
2022/05/22 12:34:01;;;;;;;11.07;2.38;;;27.00;78.90;;;;;;7343161;19;108279;-88
2022/05/22 12:36:30;;;;;;;8.50;3.13;;;27.00;71.90;;;;;;7347169;19;112009;-86
2022/05/22 12:39:03;;;;;;;7.45;2.30;;;26.90;74.80;;;;;;7341515;19;108520;-88
2022/05/22 12:41:39;;;;;;;9.95;2.25;;;27.00;75.20;;;;;;7340516;19;107846;-88
2022/05/22 12:44:07;;;;;;;11.98;3.30;;;27.20;74.60;;;;;;7341095;19;107736;-88
2022/05/22 12:46:36;;;;;;;7.47;2.40;;;27.30;76.10;;;;;;7342038;19;107184;-87
2022/05/22 12:49:31;;;;;;;8.90;2.50;;;27.30;75.10;;;;;;7339251;19;109191;-87
2022/05/22 12:52:09;;;;;;;6.07;2.40;;;27.40;77.10;;;;;;7341342;19;108134;-87
2022/05/22 12:54:37;;;;;;;5.35;2.50;;;27.70;77.30;;;;;;7340526;19;109672;-87
2022/05/22 12:57:10;;;;;;;7.00;2.30;;;27.90;72.20;;;;;;7347297;19;107963;-87
2022/05/22 12:59:37;;;;;;;6.07;2.30;;;27.90;72.10;;;;;;7342185;19;107350;-87
2022/05/22 13:02:04;;;;;;;7.55;2.15;;;27.90;74.70;;;;;;7341170;19;108612;-86
2022/05/22 13:04:35;;;;;;;9.30;2.28;;;28.00;73.90;;;;;;7340235;19;107429;-89
2022/05/22 13:07:11;;;;;;;4.75;2.00;;;28.20;71.80;;;;;;7343529;19;108571;-91
2022/05/22 13:09:51;;;;;;;6.13;1.87;;;28.40;68.10;;;;;;7342873;19;110073;-88
2022/05/22 13:12:18;;;;;;;5.85;2.63;;;28.30;69.00;;;;;;7340943;19;108233;-88
2022/05/22 13:14:50;;;;;;;4.32;2.15;;;28.20;67.30;;;;;;7341871;19;108891;-89
2022/05/22 13:17:31;;;;;;;7.13;2.40;;;28.10;67.80;;;;;;7340097;19;112015;-91
2022/05/22 13:20:02;;;;;;;6.38;3.10;;;28.00;64.10;;;;;;7348358;19;107738;-88
2022/05/22 13:22:41;;;;;;;10.27;3.70;;;27.90;68.40;;;;;;7341806;19;109178;-90
2022/05/22 13:25:30;;;;;;;9.63;2.95;;;27.90;68.00;;;;;;7343256;19;108190;-91